This is the latest recevied weather packets stored in our database for station/object K4WCH. If no packets are shown the sender has not sent any weather packets the latest 10 day(s).
| Time | Temp. | Humidity | Pressure | Rain* | Wind** | Luminosity | Snow |
|---|---|---|---|---|---|---|---|
| 1788554408 | 31.67° C | 75% | 1013.8 hPa | 0 mm | - | 151 W/m² | - |
| 1788554104 | 31.67° C | 75% | 1013.5 hPa | 0 mm | - | 169 W/m² | - |
| 1788553800 | 31.67° C | 73% | 1013.7 hPa | 0 mm | - | 164 W/m² | - |
| 1788553496 | 32.78° C | 71% | 1013.8 hPa | 0 mm | - | 173 W/m² | - |
| 1788553192 | 33.33° C | 69% | 1013.6 hPa | 0 mm | - | 183 W/m² | - |
| 1788552892 | 33.33° C | 67% | 1013.7 hPa | 0 mm | - | 636 W/m² | - |
| 1788552588 | 33.33° C | 68% | 1013.6 hPa | 0 mm | - | 703 W/m² | - |
| 1788552286 | 33.33° C | 69% | 1013.8 hPa | 0 mm | - | 695 W/m² | - |
| 1788551981 | 32.78° C | 68% | 1013.9 hPa | 0 mm | - | 706 W/m² | - |
| 1788551679 | 33.89° C | 63% | 1013.8 hPa | 0 mm | - | 220 W/m² | - |
| 1788551379 | 34.44° C | 60% | 1013.8 hPa | 0 mm | - | 283 W/m² | - |
| 1788551079 | 34.44° C | 60% | 1013.8 hPa | 0 mm | - | 302 W/m² | - |
| 1788550774 | 35° C | 57% | 1014 hPa | 0 mm | - | 374 W/m² | - |
| 1788550469 | 35° C | 56% | 1014.1 hPa | 0 mm | - | 371 W/m² | - |
| 1788550165 | 35° C | 56% | 1014.4 hPa | 0 mm | - | 554 W/m² | - |
| 1788549860 | 34.44° C | 59% | 1014.2 hPa | 0 mm | - | 852 W/m² | - |
| 1788549556 | 33.89° C | 57% | 1014.3 hPa | 0 mm | - | 296 W/m² | - |
| 1788549253 | 34.44° C | 58% | 1014.4 hPa | 0 mm | - | 282 W/m² | - |
| 1788548949 | 33.89° C | 58% | 1014.4 hPa | 0 mm | - | 780 W/m² | - |
| 1788548644 | 33.89° C | 58% | 1014.4 hPa | 0 mm | - | 342 W/m² | - |
| 1788548341 | 34.44° C | 57% | 1014.8 hPa | 0 mm | - | 330 W/m² | - |
| 1788548036 | 35° C | 55% | 1014.8 hPa | 0 mm | - | 365 W/m² | - |
| 1788547735 | 34.44° C | 56% | 1014.9 hPa | 0 mm | - | 997 W/m² | - |
| 1788547430 | 33.89° C | 58% | 1014.8 hPa | 0 mm | - | 1041 W/m² | - |
| 1788547126 | 33.89° C | 58% | 1014.9 hPa | 0 mm | - | 416 W/m² | - |
* Rain latest hour (hover to see other rain measurements)
** Current wind speed in m/s (hover to see current wind gust speed)